Check out our new PWSWeather beta!
PWSweather.com
Personal Weather Stations
Station Observations
PIOMBINO2
PiombinoIT

PiombinoIT

Lat: 42.9358, Lon: 10.5231

Elevation: 124

Station Type: Davis Vantage Pro 2

http://piombinometeo.it

Latest ConditionsUpdated 7:00:02 PM GMT+01:01 Monday, Feb 24, 2020
Currently Today's Max Today's Min Today's Average
Temperature 56.1°F13.4°C 61.2°F16.2°C 46.9°F8.3°C 53.6°F12.0°C
Dew Point 50.7°F10.4°C 52.4°F11.3°C 43.9°F6.6°C 48.2°F9.0°C
Winds 1.0 mph WNW1.6 kmh WNW 6.0 mph -9.7 kmh - - 2.8 mph 4.5 kmh
Wind Gusts 3.0 mph4.8 kmh 12.0 mph19.3 kmh - -
Humidity 82% 90% 73% 82%
Pressure 30.08 in1018.6 mb 30.26 in1024.7 mb 30.07 in1018.3 mb -
Hour Temp Dew Point Humidity Winds Wind Gusts Pressure Precip Precip Rate Daily Precip Total
07:00 PM 56.1°F13.4°C 50.7°F10.4°C 82% 1.0 mph WNW1.6 kmh WNW 3.0 mph4.8 kmh 30.08 in1018.6 mb 0.00 in0.0 mm 0.00 in0.0 mm 0.00 in0.0 mm
06:45 PM 56.5°F13.6°C 50.7°F10.4°C 81% 2.0 mph WNW3.2 kmh WNW 4.0 mph6.4 kmh 30.08 in1018.6 mb 0.00 in0.0 mm 0.00 in0.0 mm 0.00 in0.0 mm
06:30 PM 56.8°F13.8°C 51.1°F10.6°C 81% 2.0 mph NW3.2 kmh NW 4.0 mph6.4 kmh 30.07 in1018.3 mb 0.00 in0.0 mm 0.00 in0.0 mm 0.00 in0.0 mm
06:15 PM 57.4°F14.1°C 51.3°F10.7°C 80% 4.0 mph NW6.4 kmh NW 8.0 mph12.9 kmh 30.07 in1018.3 mb 0.00 in0.0 mm 0.00 in0.0 mm 0.00 in0.0 mm
06:00 PM 57.7°F14.3°C 51.3°F10.7°C 79% 3.0 mph WNW4.8 kmh WNW 8.0 mph12.9 kmh 30.07 in1018.3 mb 0.00 in0.0 mm 0.00 in0.0 mm 0.00 in0.0 mm
05:45 PM 58.3°F14.6°C 51.4°F10.8°C 78% 3.0 mph NW4.8 kmh NW 5.0 mph8.0 kmh 30.07 in1018.3 mb 0.00 in0.0 mm 0.00 in0.0 mm 0.00 in0.0 mm
05:30 PM 58.5°F14.7°C 51.6°F10.9°C 78% 4.0 mph WNW6.4 kmh WNW 8.0 mph12.9 kmh 30.07 in1018.3 mb 0.00 in0.0 mm 0.00 in0.0 mm 0.00 in0.0 mm
05:15 PM 58.8°F14.9°C 51.6°F10.9°C 77% 4.0 mph WNW6.4 kmh WNW 8.0 mph12.9 kmh 30.08 in1018.6 mb 0.00 in0.0 mm 0.00 in0.0 mm 0.00 in0.0 mm
05:00 PM 59.4°F15.2°C 51.4°F10.8°C 75% 4.0 mph WNW6.4 kmh WNW 9.0 mph14.5 kmh 30.08 in1018.6 mb 0.00 in0.0 mm 0.00 in0.0 mm 0.00 in0.0 mm
04:45 PM 59.7°F15.4°C 51.8°F11.0°C 75% 4.0 mph W6.4 kmh W 8.0 mph12.9 kmh 30.09 in1019.0 mb 0.00 in0.0 mm 0.00 in0.0 mm 0.00 in0.0 mm
04:30 PM 60.3°F15.7°C 51.9°F11.1°C 74% 5.0 mph WNW8.0 kmh WNW 10.0 mph16.1 kmh 30.09 in1019.0 mb 0.00 in0.0 mm 0.00 in0.0 mm 0.00 in0.0 mm
04:15 PM 61.2°F16.2°C 52.4°F11.3°C 73% 4.0 mph W6.4 kmh W 10.0 mph16.1 kmh 30.09 in1019.0 mb 0.00 in0.0 mm 0.00 in0.0 mm 0.00 in0.0 mm
04:00 PM 61.2°F16.2°C 52.4°F11.3°C 73% 5.0 mph WSW8.0 kmh WSW 10.0 mph16.1 kmh 30.09 in1019.0 mb 0.00 in0.0 mm 0.00 in0.0 mm 0.00 in0.0 mm
03:45 PM 60.4°F15.8°C 52.1°F11.2°C 74% 3.0 mph WSW4.8 kmh WSW 9.0 mph14.5 kmh 30.10 in1019.3 mb 0.00 in0.0 mm 0.00 in0.0 mm 0.00 in0.0 mm
03:30 PM 61.0°F16.1°C 52.3°F11.3°C 73% 4.0 mph WSW6.4 kmh WSW 8.0 mph12.9 kmh 30.10 in1019.3 mb 0.00 in0.0 mm 0.00 in0.0 mm 0.00 in0.0 mm
03:15 PM 60.3°F15.7°C 52.3°F11.3°C 75% 3.0 mph WSW4.8 kmh WSW 8.0 mph12.9 kmh 30.10 in1019.3 mb 0.00 in0.0 mm 0.00 in0.0 mm 0.00 in0.0 mm
03:00 PM 59.4°F15.2°C 51.4°F10.8°C 75% 3.0 mph SW4.8 kmh SW 6.0 mph9.7 kmh 30.11 in1019.6 mb 0.00 in0.0 mm 0.00 in0.0 mm 0.00 in0.0 mm
02:45 PM 59.4°F15.2°C 50.7°F10.4°C 73% 3.0 mph SSW4.8 kmh SSW 7.0 mph11.3 kmh 30.12 in1020.0 mb 0.00 in0.0 mm 0.00 in0.0 mm 0.00 in0.0 mm
02:30 PM 59.4°F15.2°C 51.4°F10.8°C 75% 4.0 mph SSW6.4 kmh SSW 7.0 mph11.3 kmh 30.12 in1020.0 mb 0.00 in0.0 mm 0.00 in0.0 mm 0.00 in0.0 mm
02:15 PM 58.6°F14.8°C 50.4°F10.2°C 74% 5.0 mph SSW8.0 kmh SSW 8.0 mph12.9 kmh 30.13 in1020.3 mb 0.00 in0.0 mm 0.00 in0.0 mm 0.00 in0.0 mm
02:00 PM 58.8°F14.9°C 51.3°F10.7°C 76% 5.0 mph SSW8.0 kmh SSW 9.0 mph14.5 kmh 30.13 in1020.3 mb 0.00 in0.0 mm 0.00 in0.0 mm 0.00 in0.0 mm
01:45 PM 58.8°F14.9°C 50.9°F10.5°C 75% 4.0 mph SSW6.4 kmh SSW 8.0 mph12.9 kmh 30.14 in1020.7 mb 0.00 in0.0 mm 0.00 in0.0 mm 0.00 in0.0 mm
01:30 PM 58.6°F14.8°C 50.4°F10.2°C 74% 5.0 mph S8.0 kmh S 9.0 mph14.5 kmh 30.15 in1021.0 mb 0.00 in0.0 mm 0.00 in0.0 mm 0.00 in0.0 mm
01:15 PM 58.5°F14.7°C 50.2°F10.1°C 74% 5.0 mph SSW8.0 kmh SSW 9.0 mph14.5 kmh 30.15 in1021.0 mb 0.00 in0.0 mm 0.00 in0.0 mm 0.00 in0.0 mm
01:00 PM 57.7°F14.3°C 50.2°F10.1°C 76% 5.0 mph S8.0 kmh S 9.0 mph14.5 kmh 30.15 in1021.0 mb 0.00 in0.0 mm 0.00 in0.0 mm 0.00 in0.0 mm
12:45 PM 57.6°F14.2°C 50.8°F10.4°C 78% 6.0 mph S9.7 kmh S 11.0 mph17.7 kmh 30.16 in1021.3 mb 0.00 in0.0 mm 0.00 in0.0 mm 0.00 in0.0 mm
12:30 PM 57.6°F14.2°C 50.4°F10.2°C 77% 5.0 mph S8.0 kmh S 9.0 mph14.5 kmh 30.17 in1021.7 mb 0.00 in0.0 mm 0.00 in0.0 mm 0.00 in0.0 mm
12:15 PM 57.4°F14.1°C 49.9°F9.9°C 76% 5.0 mph S8.0 kmh S 10.0 mph16.1 kmh 30.17 in1021.7 mb 0.00 in0.0 mm 0.00 in0.0 mm 0.00 in0.0 mm
12:00 PM 56.7°F13.7°C 49.5°F9.7°C 77% 6.0 mph SSE9.7 kmh SSE 10.0 mph16.1 kmh 30.18 in1022.0 mb 0.00 in0.0 mm 0.00 in0.0 mm 0.00 in0.0 mm
11:45 AM 57.0°F13.9°C 50.2°F10.1°C 78% 5.0 mph S8.0 kmh S 10.0 mph16.1 kmh 30.18 in1022.0 mb 0.00 in0.0 mm 0.00 in0.0 mm 0.00 in0.0 mm
11:30 AM 56.7°F13.7°C 49.5°F9.7°C 77% 5.0 mph SSE8.0 kmh SSE 10.0 mph16.1 kmh 30.18 in1022.0 mb 0.00 in0.0 mm 0.00 in0.0 mm 0.00 in0.0 mm
11:15 AM 56.5°F13.6°C 50.0°F10.0°C 79% 5.0 mph S8.0 kmh S 9.0 mph14.5 kmh 30.18 in1022.0 mb 0.00 in0.0 mm 0.00 in0.0 mm 0.00 in0.0 mm
11:00 AM 56.1°F13.4°C 49.7°F9.8°C 79% 4.0 mph SSE6.4 kmh SSE 12.0 mph19.3 kmh 30.19 in1022.4 mb 0.00 in0.0 mm 0.00 in0.0 mm 0.00 in0.0 mm
10:45 AM 55.8°F13.2°C 49.3°F9.6°C 79% 4.0 mph SSE6.4 kmh SSE 10.0 mph16.1 kmh 30.19 in1022.4 mb 0.00 in0.0 mm 0.00 in0.0 mm 0.00 in0.0 mm
10:30 AM 55.8°F13.2°C 49.7°F9.8°C 80% 4.0 mph SE6.4 kmh SE 9.0 mph14.5 kmh 30.19 in1022.4 mb 0.00 in0.0 mm 0.00 in0.0 mm 0.00 in0.0 mm
10:15 AM 55.9°F13.3°C 49.2°F9.6°C 78% 4.0 mph SE6.4 kmh SE 8.0 mph12.9 kmh 30.19 in1022.4 mb 0.00 in0.0 mm 0.00 in0.0 mm 0.00 in0.0 mm
10:00 AM 56.5°F13.6°C 49.4°F9.7°C 77% 2.0 mph SE3.2 kmh SE 6.0 mph9.7 kmh 30.19 in1022.4 mb 0.00 in0.0 mm 0.00 in0.0 mm 0.00 in0.0 mm
09:45 AM 56.1°F13.4°C 49.0°F9.4°C 77% 3.0 mph SE4.8 kmh SE 7.0 mph11.3 kmh 30.19 in1022.4 mb 0.00 in0.0 mm 0.00 in0.0 mm 0.00 in0.0 mm
09:30 AM 55.2°F12.9°C 48.5°F9.2°C 78% 3.0 mph E4.8 kmh E 6.0 mph9.7 kmh 30.19 in1022.4 mb 0.00 in0.0 mm 0.00 in0.0 mm 0.00 in0.0 mm
09:15 AM 54.5°F12.5°C 48.8°F9.3°C 81% 3.0 mph NE4.8 kmh NE 5.0 mph8.0 kmh 30.19 in1022.4 mb 0.00 in0.0 mm 0.00 in0.0 mm 0.00 in0.0 mm
09:00 AM 52.7°F11.5°C 48.3°F9.1°C 85% 4.0 mph NE6.4 kmh NE 7.0 mph11.3 kmh 30.19 in1022.4 mb 0.00 in0.0 mm 0.00 in0.0 mm 0.00 in0.0 mm
08:45 AM 51.3°F10.7°C 47.2°F8.4°C 86% 4.0 mph NE6.4 kmh NE 7.0 mph11.3 kmh 30.19 in1022.4 mb 0.00 in0.0 mm 0.00 in0.0 mm 0.00 in0.0 mm
08:30 AM 50.5°F10.3°C 46.8°F8.2°C 87% 3.0 mph NE4.8 kmh NE 8.0 mph12.9 kmh 30.19 in1022.4 mb 0.00 in0.0 mm 0.00 in0.0 mm 0.00 in0.0 mm
08:15 AM 49.6°F9.8°C 46.5°F8.1°C 89% 3.0 mph NE4.8 kmh NE 6.0 mph9.7 kmh 30.19 in1022.4 mb 0.00 in0.0 mm 0.00 in0.0 mm 0.00 in0.0 mm
08:00 AM 48.4°F9.1°C 45.6°F7.6°C 90% 3.0 mph NE4.8 kmh NE 5.0 mph8.0 kmh 30.19 in1022.4 mb 0.00 in0.0 mm 0.00 in0.0 mm 0.00 in0.0 mm
07:45 AM 47.5°F8.6°C 44.7°F7.1°C 90% 1.0 mph NNE1.6 kmh NNE 4.0 mph6.4 kmh 30.18 in1022.0 mb 0.00 in0.0 mm 0.00 in0.0 mm 0.00 in0.0 mm
07:30 AM 46.9°F8.3°C 44.2°F6.8°C 90% 2.0 mph NE3.2 kmh NE 5.0 mph8.0 kmh 30.18 in1022.0 mb 0.00 in0.0 mm 0.00 in0.0 mm 0.00 in0.0 mm
07:15 AM 46.9°F8.3°C 43.9°F6.6°C 89% 3.0 mph NNE4.8 kmh NNE 7.0 mph11.3 kmh 30.18 in1022.0 mb 0.00 in0.0 mm 0.00 in0.0 mm 0.00 in0.0 mm
07:00 AM 47.1°F8.4°C 44.0°F6.7°C 89% 2.0 mph NNE3.2 kmh NNE 5.0 mph8.0 kmh 30.18 in1022.0 mb 0.00 in0.0 mm 0.00 in0.0 mm 0.00 in0.0 mm
06:45 AM 47.1°F8.4°C 44.0°F6.7°C 89% 1.0 mph NNE1.6 kmh NNE 5.0 mph8.0 kmh 30.18 in1022.0 mb 0.00 in0.0 mm 0.00 in0.0 mm 0.00 in0.0 mm
06:30 AM 47.5°F8.6°C 44.4°F6.9°C 89% 2.0 mph NNE3.2 kmh NNE 5.0 mph8.0 kmh 30.19 in1022.4 mb 0.00 in0.0 mm 0.00 in0.0 mm 0.00 in0.0 mm
06:15 AM 47.8°F8.8°C 44.8°F7.1°C 89% 1.0 mph NNE1.6 kmh NNE 5.0 mph8.0 kmh 30.19 in1022.4 mb 0.00 in0.0 mm 0.00 in0.0 mm 0.00 in0.0 mm
06:00 AM 47.8°F8.8°C 44.8°F7.1°C 89% 1.0 mph NNE1.6 kmh NNE 2.0 mph3.2 kmh 30.19 in1022.4 mb 0.00 in0.0 mm 0.00 in0.0 mm 0.00 in0.0 mm
05:45 AM 48.2°F9.0°C 45.1°F7.3°C 89% 2.0 mph NNE3.2 kmh NNE 4.0 mph6.4 kmh 30.19 in1022.4 mb 0.00 in0.0 mm 0.00 in0.0 mm 0.00 in0.0 mm
05:30 AM 48.0°F8.9°C 44.9°F7.2°C 89% 1.0 mph NNE1.6 kmh NNE 4.0 mph6.4 kmh 30.18 in1022.0 mb 0.00 in0.0 mm 0.00 in0.0 mm 0.00 in0.0 mm
05:15 AM 47.8°F8.8°C 44.8°F7.1°C 89% 1.0 mph NE1.6 kmh NE 3.0 mph4.8 kmh 30.19 in1022.4 mb 0.00 in0.0 mm 0.00 in0.0 mm 0.00 in0.0 mm
05:00 AM 48.0°F8.9°C 44.9°F7.2°C 89% 1.0 mph NE1.6 kmh NE 3.0 mph4.8 kmh 30.19 in1022.4 mb 0.00 in0.0 mm 0.00 in0.0 mm 0.00 in0.0 mm
04:45 AM 48.0°F8.9°C 44.9°F7.2°C 89% 1.0 mph NE1.6 kmh NE 3.0 mph4.8 kmh 30.19 in1022.4 mb 0.00 in0.0 mm 0.00 in0.0 mm 0.00 in0.0 mm
04:30 AM 48.6°F9.2°C 45.5°F7.5°C 89% 2.0 mph NNE3.2 kmh NNE 3.0 mph4.8 kmh 30.19 in1022.4 mb 0.00 in0.0 mm 0.00 in0.0 mm 0.00 in0.0 mm
04:15 AM 48.4°F9.1°C 45.3°F7.4°C 89% 1.0 mph NNE1.6 kmh NNE 3.0 mph4.8 kmh 30.20 in1022.7 mb 0.00 in0.0 mm 0.00 in0.0 mm 0.00 in0.0 mm
04:00 AM 48.4°F9.1°C 45.3°F7.4°C 89% 2.0 mph NE3.2 kmh NE 4.0 mph6.4 kmh 30.20 in1022.7 mb 0.00 in0.0 mm 0.00 in0.0 mm 0.00 in0.0 mm
03:45 AM 48.6°F9.2°C 45.2°F7.3°C 88% 1.0 mph NE1.6 kmh NE 3.0 mph4.8 kmh 30.20 in1022.7 mb 0.00 in0.0 mm 0.00 in0.0 mm 0.00 in0.0 mm
03:30 AM 48.6°F9.2°C 45.2°F7.3°C 88% 1.0 mph NNE1.6 kmh NNE 2.0 mph3.2 kmh 30.20 in1022.7 mb 0.00 in0.0 mm 0.00 in0.0 mm 0.00 in0.0 mm
03:15 AM 48.6°F9.2°C 45.2°F7.3°C 88% 1.0 mph NE1.6 kmh NE 3.0 mph4.8 kmh 30.20 in1022.7 mb 0.00 in0.0 mm 0.00 in0.0 mm 0.00 in0.0 mm
03:00 AM 48.7°F9.3°C 45.3°F7.4°C 88% 1.0 mph NE1.6 kmh NE 3.0 mph4.8 kmh 30.21 in1023.0 mb 0.00 in0.0 mm 0.00 in0.0 mm 0.00 in0.0 mm
02:45 AM 48.7°F9.3°C 45.3°F7.4°C 88% 1.0 mph NNE1.6 kmh NNE 3.0 mph4.8 kmh 30.21 in1023.0 mb 0.00 in0.0 mm 0.00 in0.0 mm 0.00 in0.0 mm
02:30 AM 49.1°F9.5°C 45.4°F7.4°C 87% Calm Calm 1.0 mph1.6 kmh 30.22 in1023.4 mb 0.00 in0.0 mm 0.00 in0.0 mm 0.00 in0.0 mm
02:15 AM 49.3°F9.6°C 45.6°F7.6°C 87% Calm Calm 1.0 mph1.6 kmh 30.23 in1023.7 mb 0.00 in0.0 mm 0.00 in0.0 mm 0.00 in0.0 mm
02:00 AM 49.5°F9.7°C 45.8°F7.7°C 87% Calm Calm 2.0 mph3.2 kmh 30.23 in1023.7 mb 0.00 in0.0 mm 0.00 in0.0 mm 0.00 in0.0 mm
01:45 AM 49.8°F9.9°C 46.1°F7.8°C 87% 2.0 mph N3.2 kmh N 3.0 mph4.8 kmh 30.24 in1024.0 mb 0.00 in0.0 mm 0.00 in0.0 mm 0.00 in0.0 mm
01:30 AM 49.8°F9.9°C 46.1°F7.8°C 87% Calm Calm 2.0 mph3.2 kmh 30.24 in1024.0 mb 0.00 in0.0 mm 0.00 in0.0 mm 0.00 in0.0 mm
01:15 AM 50.2°F10.1°C 46.2°F7.9°C 86% Calm Calm 2.0 mph3.2 kmh 30.24 in1024.0 mb 0.00 in0.0 mm 0.00 in0.0 mm 0.00 in0.0 mm
01:00 AM 50.5°F10.3°C 46.5°F8.1°C 86% Calm Calm 2.0 mph3.2 kmh 30.25 in1024.4 mb 0.00 in0.0 mm 0.00 in0.0 mm 0.00 in0.0 mm
12:45 AM 50.7°F10.4°C 46.7°F8.2°C 86% 1.0 mph N1.6 kmh N 2.0 mph3.2 kmh 30.26 in1024.7 mb 0.00 in0.0 mm 0.00 in0.0 mm 0.00 in0.0 mm
12:30 AM 50.7°F10.4°C 46.7°F8.2°C 86% 2.0 mph N3.2 kmh N 3.0 mph4.8 kmh 30.26 in1024.7 mb 0.00 in0.0 mm 0.00 in0.0 mm 0.00 in0.0 mm
12:15 AM 51.1°F10.6°C 47.0°F8.3°C 86% 2.0 mph N3.2 kmh N 4.0 mph6.4 kmh 30.26 in1024.7 mb 0.00 in0.0 mm 0.00 in0.0 mm 0.00 in0.0 mm
12:00 AM 51.3°F10.7°C 47.2°F8.4°C 86% 2.0 mph N3.2 kmh N 3.0 mph4.8 kmh 30.26 in1024.7 mb 0.00 in0.0 mm 0.00 in0.0 mm 0.00 in0.0 mm